Aviation Digital Data Service (ADDS)

Output produced by METARs form (1549 UTC 23 November 2014)
found at http://aviationweather.gov/adds/metars/
 
KCON 231121Z 2312/2412 23006KT P6SM BKN035 WS020/25035KT 
     FM231400 24008KT P6SM SCT035 BKN080 
     FM241000 14004KT P6SM -SHRA OVC035